ADV9129 KPHX-MMPR
Flight info
| Callsign | ADV9129 |
|---|---|
| Flight time | N/A |
| Altitude | 33000 |
| Route | STRRM1 TUS J92 VYLLA UT12 CUL UJ7 MZT J141 OBRUG OBRUG1B |
| Aircraft | A320/M-SDE3FGHIRWY/LB1 |
Departure
| Time | 2026-05-01 14:14 |
|---|---|
| Airport | Phoenix Sky Harbor International Airport (KPHX) |
Arrival
| Time | N/A |
|---|---|
| Airport | Puerto Vallarta International Airport (MMPR) |
| Time | Latitude | Longitude | Altitude | Speed | Heading |
|---|---|---|---|---|---|
| 2026-05-01 14:04 | 33.43386 | -112.01130 | 1096 ft | 0 kts | 360° |
| 2026-05-01 14:06 | 33.43372 | -112.01130 | 1110 ft | 4 kts | 359° |
| 2026-05-01 14:06 | 33.43345 | -112.01129 | 1122 ft | 4 kts | 355° |
| 2026-05-01 14:06 | 33.43318 | -112.01124 | 1122 ft | 4 kts | 346° |
| 2026-05-01 14:07 | 33.43295 | -112.01113 | 1118 ft | 4 kts | 313° |
| 2026-05-01 14:07 | 33.43287 | -112.01099 | 1120 ft | 0 kts | 270° |
| 2026-05-01 14:09 | 33.43287 | -112.01145 | 1125 ft | 10 kts | 264° |
| 2026-05-01 14:10 | 33.43238 | -112.01203 | 1120 ft | 11 kts | 210° |
| 2026-05-01 14:10 | 33.43214 | -112.01290 | 1122 ft | 13 kts | 270° |
| 2026-05-01 14:10 | 33.43215 | -112.01427 | 1118 ft | 20 kts | 270° |
| 2026-05-01 14:10 | 33.43215 | -112.01605 | 1118 ft | 22 kts | 270° |
| 2026-05-01 14:11 | 33.43215 | -112.01799 | 1125 ft | 24 kts | 270° |
| 2026-05-01 14:11 | 33.43215 | -112.02228 | 1121 ft | 27 kts | 270° |
| 2026-05-01 14:11 | 33.43215 | -112.02444 | 1120 ft | 25 kts | 270° |
| 2026-05-01 14:12 | 33.43215 | -112.02615 | 1120 ft | 13 kts | 270° |
| 2026-05-01 14:12 | 33.43189 | -112.02690 | 1122 ft | 8 kts | 211° |
| 2026-05-01 14:12 | 33.43129 | -112.02696 | 1123 ft | 10 kts | 167° |
| 2026-05-01 14:12 | 33.43106 | -112.02626 | 1126 ft | 9 kts | 90° |
| 2026-05-01 14:13 | 33.43106 | -112.02615 | 1126 ft | 0 kts | 89° |
| 2026-05-01 14:13 | 33.43107 | -112.02483 | 1126 ft | 49 kts | 90° |
| 2026-05-01 14:13 | 33.43105 | -112.01485 | 1127 ft | 127 kts | 90° |
| 2026-05-01 14:13 | 33.43103 | -112.00267 | 1280 ft | 154 kts | 91° |
| 2026-05-01 14:14 | 33.43143 | -111.99000 | 1858 ft | 152 kts | 87° |
| 2026-05-01 14:14 | 33.43210 | -111.97731 | 2357 ft | 153 kts | 88° |
| 2026-05-01 14:14 | 33.43269 | -111.96449 | 2880 ft | 157 kts | 88° |
| 2026-05-01 14:14 | 33.43330 | -111.95060 | 3143 ft | 178 kts | 87° |
| 2026-05-01 14:15 | 33.43397 | -111.93486 | 3391 ft | 201 kts | 87° |
| 2026-05-01 14:15 | 33.43471 | -111.91709 | 3652 ft | 226 kts | 87° |
| 2026-05-01 14:15 | 33.43549 | -111.89776 | 4262 ft | 236 kts | 87° |
| 2026-05-01 14:15 | 33.43490 | -111.87773 | 4852 ft | 252 kts | 106° |
| 2026-05-01 14:16 | 33.42573 | -111.85898 | 5323 ft | 272 kts | 133° |
| 2026-05-01 14:16 | 33.41147 | -111.84361 | 6126 ft | 279 kts | 142° |
| 2026-05-01 14:16 | 33.39575 | -111.82972 | 6961 ft | 283 kts | 144° |
| 2026-05-01 14:16 | 33.37920 | -111.81671 | 7784 ft | 287 kts | 154° |
| 2026-05-01 14:17 | 33.36022 | -111.80903 | 8613 ft | 291 kts | 169° |
| 2026-05-01 14:17 | 33.34000 | -111.80703 | 9432 ft | 294 kts | 184° |
| 2026-05-01 14:17 | 33.31969 | -111.81083 | 10181 ft | 298 kts | 193° |
| 2026-05-01 14:17 | 33.29869 | -111.81634 | 10482 ft | 321 kts | 193° |
| 2026-05-01 14:18 | 33.27619 | -111.82231 | 10799 ft | 338 kts | 193° |
| 2026-05-01 14:18 | 33.25298 | -111.82844 | 11426 ft | 345 kts | 193° |
| 2026-05-01 14:18 | 33.22943 | -111.83468 | 12134 ft | 348 kts | 193° |
| 2026-05-01 14:18 | 33.21375 | -111.83884 | 12612 ft | 350 kts | 193° |
| 2026-05-01 14:19 | 33.18169 | -111.84732 | 13586 ft | 354 kts | 193° |
| 2026-05-01 14:19 | 33.15787 | -111.85509 | 14220 ft | 357 kts | 202° |
| 2026-05-01 14:19 | 33.13556 | -111.86818 | 14807 ft | 359 kts | 213° |
| 2026-05-01 14:19 | 33.11412 | -111.88364 | 15404 ft | 362 kts | 213° |
| 2026-05-01 14:20 | 33.09271 | -111.89899 | 15985 ft | 366 kts | 214° |
| 2026-05-01 14:20 | 33.04863 | -111.93044 | 17183 ft | 373 kts | 214° |
| 2026-05-01 14:20 | 33.02482 | -111.94348 | 17806 ft | 383 kts | 202° |
| 2026-05-01 14:21 | 32.99837 | -111.94978 | 18375 ft | 394 kts | 188° |
| 2026-05-01 14:21 | 32.97068 | -111.94831 | 18854 ft | 405 kts | 173° |
| 2026-05-01 14:21 | 32.94338 | -111.93857 | 19382 ft | 415 kts | 159° |
| 2026-05-01 14:22 | 32.89116 | -111.90773 | 20448 ft | 426 kts | 147° |
| 2026-05-01 14:22 | 32.86799 | -111.88534 | 20963 ft | 432 kts | 137° |
| 2026-05-01 14:22 | 32.84718 | -111.85923 | 21458 ft | 437 kts | 134° |
| 2026-05-01 14:22 | 32.82634 | -111.83267 | 21955 ft | 441 kts | 134° |
| 2026-05-01 14:23 | 32.80525 | -111.80587 | 22446 ft | 446 kts | 134° |
| 2026-05-01 14:23 | 32.78399 | -111.77890 | 22966 ft | 449 kts | 135° |
| 2026-05-01 14:23 | 32.76251 | -111.75166 | 23447 ft | 453 kts | 134° |
| 2026-05-01 14:23 | 32.74090 | -111.72425 | 23858 ft | 456 kts | 134° |
| 2026-05-01 14:24 | 32.71914 | -111.69667 | 24260 ft | 459 kts | 134° |
| 2026-05-01 14:24 | 32.69725 | -111.66892 | 24659 ft | 462 kts | 135° |
| 2026-05-01 14:24 | 32.67521 | -111.64099 | 25048 ft | 465 kts | 135° |
| 2026-05-01 14:24 | 32.65297 | -111.61290 | 25436 ft | 468 kts | 135° |
| 2026-05-01 14:25 | 32.63062 | -111.58470 | 25819 ft | 471 kts | 135° |
| 2026-05-01 14:25 | 32.60808 | -111.55629 | 26261 ft | 474 kts | 135° |
| 2026-05-01 14:25 | 32.58575 | -111.52817 | 26643 ft | 476 kts | 135° |
| 2026-05-01 14:25 | 32.56268 | -111.49913 | 27005 ft | 479 kts | 135° |
| 2026-05-01 14:26 | 32.53978 | -111.47027 | 27396 ft | 482 kts | 135° |
| 2026-05-01 14:26 | 32.49359 | -111.41217 | 28140 ft | 487 kts | 135° |
| 2026-05-01 14:26 | 32.47058 | -111.38325 | 28492 ft | 490 kts | 135° |
| 2026-05-01 14:27 | 32.44716 | -111.35380 | 28843 ft | 493 kts | 135° |
| 2026-05-01 14:27 | 32.42361 | -111.32421 | 29191 ft | 495 kts | 135° |
| 2026-05-01 14:27 | 32.39990 | -111.29446 | 29516 ft | 498 kts | 135° |
| 2026-05-01 14:28 | 32.35203 | -111.23461 | 30151 ft | 504 kts | 135° |
| 2026-05-01 14:28 | 32.32781 | -111.20440 | 30397 ft | 507 kts | 135° |
| 2026-05-01 14:28 | 32.30353 | -111.17410 | 30682 ft | 509 kts | 136° |
| 2026-05-01 14:28 | 32.27908 | -111.14359 | 30961 ft | 512 kts | 136° |
| 2026-05-01 14:29 | 32.25457 | -111.11301 | 31244 ft | 514 kts | 136° |
| 2026-05-01 14:29 | 32.22993 | -111.08233 | 31553 ft | 515 kts | 136° |
| 2026-05-01 14:30 | 32.15594 | -110.99032 | 32703 ft | 515 kts | 136° |
| 2026-05-01 14:30 | 32.13064 | -110.96134 | 32952 ft | 512 kts | 145° |
| 2026-05-01 14:30 | 32.10056 | -110.93917 | 33027 ft | 494 kts | 163° |
| 2026-05-01 14:31 | 32.03627 | -110.92208 | 33027 ft | 470 kts | 182° |
| 2026-05-01 14:31 | 31.97169 | -110.92138 | 33001 ft | 462 kts | 189° |
| 2026-05-01 14:32 | 31.90744 | -110.92335 | 32970 ft | 462 kts | 189° |
| 2026-05-01 14:32 | 31.84334 | -110.92620 | 32948 ft | 461 kts | 190° |
| 2026-05-01 14:33 | 31.77934 | -110.92944 | 32923 ft | 461 kts | 190° |
| 2026-05-01 14:33 | 31.71522 | -110.93247 | 32913 ft | 461 kts | 190° |
| 2026-05-01 14:34 | 31.65111 | -110.93539 | 32919 ft | 461 kts | 190° |
| 2026-05-01 14:34 | 31.59784 | -110.93783 | 33004 ft | 461 kts | 190° |
| 2026-05-01 14:35 | 31.53373 | -110.94081 | 33031 ft | 461 kts | 190° |
| 2026-05-01 14:35 | 31.46953 | -110.94372 | 33052 ft | 461 kts | 190° |
| 2026-05-01 14:36 | 31.40540 | -110.94662 | 33057 ft | 461 kts | 190° |
| 2026-05-01 14:36 | 31.34085 | -110.94377 | 33027 ft | 474 kts | 175° |
| 2026-05-01 14:36 | 31.30887 | -110.93306 | 33026 ft | 483 kts | 164° |
| 2026-05-01 14:37 | 31.27835 | -110.91593 | 33024 ft | 489 kts | 157° |
| 2026-05-01 14:37 | 31.21832 | -110.87856 | 32998 ft | 489 kts | 158° |
| 2026-05-01 14:38 | 31.15807 | -110.84155 | 32978 ft | 489 kts | 158° |
| 2026-05-01 14:38 | 31.09782 | -110.80460 | 32959 ft | 489 kts | 158° |
| 2026-05-01 14:39 | 31.03768 | -110.76764 | 32942 ft | 489 kts | 158° |
| 2026-05-01 14:39 | 30.97753 | -110.73074 | 32946 ft | 488 kts | 158° |
| 2026-05-01 14:40 | 30.91746 | -110.69385 | 32952 ft | 488 kts | 158° |
| 2026-05-01 14:40 | 30.85776 | -110.65726 | 32936 ft | 488 kts | 158° |
| 2026-05-01 14:41 | 30.79765 | -110.62057 | 32953 ft | 487 kts | 158° |
| 2026-05-01 14:41 | 30.73757 | -110.58392 | 32962 ft | 487 kts | 158° |
| 2026-05-01 14:42 | 30.67759 | -110.54735 | 32959 ft | 487 kts | 158° |
| 2026-05-01 14:42 | 30.61762 | -110.51088 | 32946 ft | 486 kts | 158° |
| 2026-05-01 14:43 | 30.55776 | -110.47447 | 32956 ft | 486 kts | 158° |
| 2026-05-01 14:43 | 30.49793 | -110.43808 | 32976 ft | 485 kts | 158° |
| 2026-05-01 14:44 | 30.43801 | -110.40180 | 32971 ft | 486 kts | 158° |
| 2026-05-01 14:44 | 30.34828 | -110.34768 | 32956 ft | 484 kts | 158° |
| 2026-05-01 14:45 | 30.25862 | -110.29344 | 32987 ft | 484 kts | 158° |
| 2026-05-01 14:46 | 30.19888 | -110.25747 | 32963 ft | 484 kts | 158° |
| 2026-05-01 14:46 | 30.10931 | -110.20363 | 32960 ft | 483 kts | 158° |
| 2026-05-01 14:47 | 30.04973 | -110.16777 | 32982 ft | 483 kts | 158° |
| 2026-05-01 14:48 | 29.96039 | -110.11417 | 32986 ft | 482 kts | 158° |
| 2026-05-01 14:48 | 29.87111 | -110.06076 | 32967 ft | 481 kts | 159° |
| 2026-05-01 14:49 | 29.75273 | -109.99009 | 32976 ft | 481 kts | 159° |
| 2026-05-01 14:50 | 29.63403 | -109.91940 | 32968 ft | 479 kts | 159° |
| 2026-05-01 14:51 | 29.54507 | -109.86666 | 32971 ft | 479 kts | 159° |
| 2026-05-01 14:52 | 29.45627 | -109.81402 | 32976 ft | 479 kts | 159° |
| 2026-05-01 14:53 | 29.36776 | -109.76171 | 32971 ft | 478 kts | 159° |
| 2026-05-01 14:53 | 29.30864 | -109.72684 | 32974 ft | 478 kts | 159° |
| 2026-05-01 14:54 | 29.24956 | -109.69199 | 32980 ft | 477 kts | 159° |
| 2026-05-01 14:54 | 29.19046 | -109.65722 | 32983 ft | 477 kts | 159° |
| 2026-05-01 14:55 | 29.13140 | -109.62253 | 32981 ft | 477 kts | 159° |
| 2026-05-01 14:55 | 29.07235 | -109.58783 | 32979 ft | 477 kts | 159° |
| 2026-05-01 14:56 | 29.01334 | -109.55323 | 32976 ft | 477 kts | 159° |
| 2026-05-01 14:56 | 28.95430 | -109.51862 | 32983 ft | 477 kts | 159° |
| 2026-05-01 14:57 | 28.89532 | -109.48406 | 32965 ft | 476 kts | 159° |
| 2026-05-01 14:57 | 28.80695 | -109.43235 | 32985 ft | 476 kts | 159° |
| 2026-05-01 14:58 | 28.74796 | -109.39797 | 32975 ft | 475 kts | 159° |
| 2026-05-01 14:58 | 28.68906 | -109.36375 | 32983 ft | 475 kts | 159° |
| 2026-05-01 14:59 | 28.63017 | -109.32960 | 32969 ft | 475 kts | 160° |
| 2026-05-01 14:59 | 28.57136 | -109.29549 | 32977 ft | 474 kts | 160° |
| 2026-05-01 15:00 | 28.48363 | -109.24450 | 32983 ft | 474 kts | 159° |
| 2026-05-01 15:01 | 28.42487 | -109.21049 | 32956 ft | 474 kts | 160° |
| 2026-05-01 15:01 | 28.36622 | -109.17667 | 32983 ft | 472 kts | 160° |
| 2026-05-01 15:02 | 28.30766 | -109.14285 | 32982 ft | 472 kts | 159° |
| 2026-05-01 15:02 | 28.24921 | -109.10915 | 32999 ft | 471 kts | 160° |
| 2026-05-01 15:03 | 28.19067 | -109.07535 | 32986 ft | 472 kts | 160° |
| 2026-05-01 15:03 | 28.13222 | -109.04170 | 32959 ft | 471 kts | 160° |
| 2026-05-01 15:04 | 28.07381 | -109.00814 | 32963 ft | 470 kts | 160° |
| 2026-05-01 15:04 | 28.01544 | -108.97461 | 32970 ft | 471 kts | 160° |
| 2026-05-01 15:05 | 27.95746 | -108.94132 | 32965 ft | 470 kts | 160° |
| 2026-05-01 15:05 | 27.89904 | -108.90791 | 32957 ft | 472 kts | 160° |
| 2026-05-01 15:06 | 27.84053 | -108.87454 | 32941 ft | 470 kts | 160° |
| 2026-05-01 15:06 | 27.78210 | -108.84120 | 32958 ft | 470 kts | 160° |
| 2026-05-01 15:07 | 27.72374 | -108.80779 | 32968 ft | 470 kts | 160° |
| 2026-05-01 15:07 | 27.66541 | -108.77452 | 32973 ft | 470 kts | 160° |
| 2026-05-01 15:08 | 27.60703 | -108.74133 | 32945 ft | 469 kts | 160° |
| 2026-05-01 15:08 | 27.54877 | -108.70819 | 32961 ft | 469 kts | 160° |
| 2026-05-01 15:09 | 27.49043 | -108.67509 | 32962 ft | 470 kts | 160° |
| 2026-05-01 15:09 | 27.43206 | -108.64202 | 32973 ft | 470 kts | 160° |
| 2026-05-01 15:10 | 27.37362 | -108.60891 | 32936 ft | 470 kts | 161° |
| 2026-05-01 15:10 | 27.28611 | -108.55947 | 32971 ft | 469 kts | 161° |
| 2026-05-01 15:11 | 27.19854 | -108.51004 | 32964 ft | 469 kts | 161° |
| 2026-05-01 15:12 | 27.14064 | -108.47731 | 32971 ft | 469 kts | 161° |
| 2026-05-01 15:12 | 27.05313 | -108.42798 | 32952 ft | 469 kts | 162° |
| 2026-05-01 15:14 | 26.90715 | -108.34609 | 32952 ft | 470 kts | 162° |
| 2026-05-01 15:14 | 26.81942 | -108.29682 | 32925 ft | 470 kts | 162° |
| 2026-05-01 15:15 | 26.70237 | -108.23141 | 32941 ft | 470 kts | 162° |
| 2026-05-01 15:16 | 26.58496 | -108.16673 | 32946 ft | 464 kts | 168° |
| 2026-05-01 15:18 | 26.43362 | -108.10829 | 32957 ft | 461 kts | 171° |
| 2026-05-01 15:19 | 26.31288 | -108.06202 | 32964 ft | 461 kts | 171° |
| 2026-05-01 15:19 | 26.22195 | -108.02720 | 32945 ft | 461 kts | 172° |
| 2026-05-01 15:20 | 26.13113 | -107.99250 | 32933 ft | 459 kts | 171° |
| 2026-05-01 15:21 | 26.07051 | -107.96944 | 32934 ft | 461 kts | 171° |
| 2026-05-01 15:21 | 26.00983 | -107.94632 | 32904 ft | 461 kts | 172° |
| 2026-05-01 15:22 | 25.92921 | -107.91556 | 32927 ft | 460 kts | 172° |
| 2026-05-01 15:22 | 25.86864 | -107.89258 | 32927 ft | 460 kts | 172° |
| 2026-05-01 15:23 | 25.80801 | -107.86965 | 32943 ft | 460 kts | 172° |
| 2026-05-01 15:23 | 25.74741 | -107.84668 | 32920 ft | 460 kts | 172° |
| 2026-05-01 15:24 | 25.68682 | -107.82377 | 32909 ft | 460 kts | 172° |
| 2026-05-01 15:24 | 25.62618 | -107.80090 | 32906 ft | 460 kts | 172° |
| 2026-05-01 15:25 | 25.56553 | -107.77793 | 32906 ft | 460 kts | 172° |
| 2026-05-01 15:25 | 25.50483 | -107.75493 | 32917 ft | 461 kts | 172° |
| 2026-05-01 15:26 | 25.44404 | -107.73196 | 32900 ft | 461 kts | 172° |
| 2026-05-01 15:26 | 25.38331 | -107.70917 | 32916 ft | 461 kts | 172° |
| 2026-05-01 15:27 | 25.32267 | -107.68642 | 32934 ft | 460 kts | 172° |
| 2026-05-01 15:28 | 25.23206 | -107.65237 | 32934 ft | 460 kts | 172° |
| 2026-05-01 15:28 | 25.17142 | -107.62957 | 32892 ft | 460 kts | 171° |
| 2026-05-01 15:29 | 25.08061 | -107.59547 | 32915 ft | 459 kts | 171° |
| 2026-05-01 15:30 | 24.95970 | -107.55018 | 32936 ft | 459 kts | 172° |
| 2026-05-01 15:31 | 24.77862 | -107.48222 | 32922 ft | 463 kts | 167° |
| 2026-05-01 15:32 | 24.72208 | -107.44523 | 32927 ft | 479 kts | 154° |
| 2026-05-01 15:32 | 24.66738 | -107.40331 | 32928 ft | 480 kts | 154° |
| 2026-05-01 15:34 | 24.50325 | -107.27815 | 32932 ft | 478 kts | 153° |